sensor_id;sensor_type;location;lat;lon;timestamp;pressure;altitude;pressure_sealevel;temperature;humidity
39949;BME280;29070;48.102;-1.652;2023-05-02T00:01:31;102056.97;;;11.38;65.03
39949;BME280;29070;48.102;-1.652;2023-05-02T00:06:31;102054.00;;;11.33;65.30
39949;BME280;29070;48.102;-1.652;2023-05-02T00:11:32;102048.59;;;11.26;65.61
39949;BME280;29070;48.102;-1.652;2023-05-02T00:16:32;102044.81;;;11.21;65.78
39949;BME280;29070;48.102;-1.652;2023-05-02T00:21:32;102039.59;;;11.13;65.85
39949;BME280;29070;48.102;-1.652;2023-05-02T00:26:33;102034.97;;;11.06;66.15
39949;BME280;29070;48.102;-1.652;2023-05-02T00:31:33;102031.69;;;10.96;66.25
39949;BME280;29070;48.102;-1.652;2023-05-02T00:36:34;102034.19;;;10.90;66.29
39949;BME280;29070;48.102;-1.652;2023-05-02T00:41:35;102038.28;;;10.84;66.62
39949;BME280;29070;48.102;-1.652;2023-05-02T00:46:35;102036.63;;;10.75;66.52
39949;BME280;29070;48.102;-1.652;2023-05-02T00:51:36;102037.94;;;10.71;66.77
39949;BME280;29070;48.102;-1.652;2023-05-02T00:56:36;102035.66;;;10.76;67.05
39949;BME280;29070;48.102;-1.652;2023-05-02T01:12:42;102051.25;;;11.02;69.42
39949;BME280;29070;48.102;-1.652;2023-05-02T01:17:46;102053.06;;;11.10;68.97
39949;BME280;29070;48.102;-1.652;2023-05-02T01:22:49;102045.00;;;11.11;68.89
39949;BME280;29070;48.102;-1.652;2023-05-02T01:28:04;102045.50;;;11.15;69.38
39949;BME280;29070;48.102;-1.652;2023-05-02T01:33:13;102042.72;;;11.16;69.41
39949;BME280;29070;48.102;-1.652;2023-05-02T01:38:16;102034.50;;;11.11;69.05
39949;BME280;29070;48.102;-1.652;2023-05-02T01:43:19;102029.06;;;11.13;69.66
39949;BME280;29070;48.102;-1.652;2023-05-02T01:48:21;102032.69;;;11.20;70.11
39949;BME280;29070;48.102;-1.652;2023-05-02T01:53:24;102038.91;;;11.27;70.43
39949;BME280;29070;48.102;-1.652;2023-05-02T01:58:28;102034.94;;;11.31;70.63
39949;BME280;29070;48.102;-1.652;2023-05-02T02:03:30;102045.16;;;11.34;71.02
39949;BME280;29070;48.102;-1.652;2023-05-02T02:08:30;102054.97;;;11.40;71.18
39949;BME280;29070;48.102;-1.652;2023-05-02T02:13:38;102055.94;;;11.48;71.50
39949;BME280;29070;48.102;-1.652;2023-05-02T02:18:38;102060.72;;;11.44;71.09
39949;BME280;29070;48.102;-1.652;2023-05-02T02:23:40;102054.81;;;11.42;71.20
39949;BME280;29070;48.102;-1.652;2023-05-02T02:28:42;102065.16;;;11.43;71.53
39949;BME280;29070;48.102;-1.652;2023-05-02T02:33:43;102077.47;;;11.51;71.80
39949;BME280;29070;48.102;-1.652;2023-05-02T02:38:47;102083.22;;;11.55;72.08
39949;BME280;29070;48.102;-1.652;2023-05-02T02:54:13;102084.84;;;11.64;72.31
39949;BME280;29070;48.102;-1.652;2023-05-02T02:59:26;102072.84;;;11.61;72.69
39949;BME280;29070;48.102;-1.652;2023-05-02T03:04:28;102080.25;;;11.58;73.07
39949;BME280;29070;48.102;-1.652;2023-05-02T03:09:43;102078.28;;;11.60;73.38
39949;BME280;29070;48.102;-1.652;2023-05-02T03:14:43;102082.53;;;11.69;73.07
39949;BME280;29070;48.102;-1.652;2023-05-02T03:19:44;102080.91;;;11.68;72.92
39949;BME280;29070;48.102;-1.652;2023-05-02T03:24:44;102077.91;;;11.71;72.90
39949;BME280;29070;48.102;-1.652;2023-05-02T03:29:45;102080.84;;;11.76;73.01
39949;BME280;29070;48.102;-1.652;2023-05-02T03:34:45;102087.44;;;11.80;73.14
39949;BME280;29070;48.102;-1.652;2023-05-02T03:39:45;102087.72;;;11.86;73.25
39949;BME280;29070;48.102;-1.652;2023-05-02T03:44:45;102090.03;;;11.89;73.16
39949;BME280;29070;48.102;-1.652;2023-05-02T03:49:46;102076.56;;;11.83;73.02
39949;BME280;29070;48.102;-1.652;2023-05-02T03:54:46;102085.94;;;11.86;73.25
39949;BME280;29070;48.102;-1.652;2023-05-02T03:59:47;102079.50;;;11.89;73.31
39949;BME280;29070;48.102;-1.652;2023-05-02T04:04:47;102073.94;;;11.92;73.51
39949;BME280;29070;48.102;-1.652;2023-05-02T04:09:48;102066.69;;;11.94;73.54
39949;BME280;29070;48.102;-1.652;2023-05-02T04:14:48;102082.13;;;11.89;73.28
39949;BME280;29070;48.102;-1.652;2023-05-02T04:19:48;102073.94;;;11.83;73.16
39949;BME280;29070;48.102;-1.652;2023-05-02T04:24:50;102076.56;;;11.83;73.21
39949;BME280;29070;48.102;-1.652;2023-05-02T04:29:51;102076.56;;;11.83;73.22
39949;BME280;29070;48.102;-1.652;2023-05-02T04:34:52;102075.25;;;11.88;73.33
39949;BME280;29070;48.102;-1.652;2023-05-02T04:39:52;102082.81;;;11.91;73.74
39949;BME280;29070;48.102;-1.652;2023-05-02T04:44:53;102082.94;;;11.89;73.69
39949;BME280;29070;48.102;-1.652;2023-05-02T04:49:53;102080.19;;;11.82;73.28
39949;BME280;29070;48.102;-1.652;2023-05-02T04:54:53;102089.75;;;11.75;73.14
39949;BME280;29070;48.102;-1.652;2023-05-02T04:59:54;102100.59;;;11.72;73.62
39949;BME280;29070;48.102;-1.652;2023-05-02T05:04:54;102097.28;;;11.78;73.71
39949;BME280;29070;48.102;-1.652;2023-05-02T05:09:55;102100.41;;;11.82;73.77
39949;BME280;29070;48.102;-1.652;2023-05-02T05:14:55;102097.13;;;11.80;73.53
39949;BME280;29070;48.102;-1.652;2023-05-02T05:19:56;102096.81;;;11.75;73.45
39949;BME280;29070;48.102;-1.652;2023-05-02T05:24:56;102095.34;;;11.72;73.47
39949;BME280;29070;48.102;-1.652;2023-05-02T05:29:57;102101.78;;;11.70;73.41
39949;BME280;29070;48.102;-1.652;2023-05-02T05:34:57;102105.38;;;11.77;74.01
39949;BME280;29070;48.102;-1.652;2023-05-02T05:39:57;102101.56;;;11.79;73.87
39949;BME280;29070;48.102;-1.652;2023-05-02T05:44:58;102104.53;;;11.85;73.85
39949;BME280;29070;48.102;-1.652;2023-05-02T05:49:58;102111.06;;;11.89;74.15
39949;BME280;29070;48.102;-1.652;2023-05-02T05:54:58;102121.94;;;12.02;74.23
39949;BME280;29070;48.102;-1.652;2023-05-02T05:59:59;102131.94;;;12.07;74.14
39949;BME280;29070;48.102;-1.652;2023-05-02T06:04:59;102137.72;;;12.02;73.73
39949;BME280;29070;48.102;-1.652;2023-05-02T06:09:59;102131.16;;;11.90;74.32
39949;BME280;29070;48.102;-1.652;2023-05-02T06:15:00;102142.16;;;12.01;74.32
39949;BME280;29070;48.102;-1.652;2023-05-02T06:20:00;102142.28;;;12.16;74.25
39949;BME280;29070;48.102;-1.652;2023-05-02T06:25:01;102147.00;;;12.29;74.46
39949;BME280;29070;48.102;-1.652;2023-05-02T06:30:01;102155.00;;;12.44;74.47
39949;BME280;29070;48.102;-1.652;2023-05-02T06:35:02;102155.91;;;12.59;74.34
39949;BME280;29070;48.102;-1.652;2023-05-02T06:40:02;102162.75;;;12.77;74.19
39949;BME280;29070;48.102;-1.652;2023-05-02T06:45:04;102158.34;;;12.92;74.21
39949;BME280;29070;48.102;-1.652;2023-05-02T06:50:05;102157.66;;;12.99;73.73
39949;BME280;29070;48.102;-1.652;2023-05-02T06:55:06;102159.13;;;13.01;73.47
39949;BME280;29070;48.102;-1.652;2023-05-02T07:00:07;102163.41;;;13.02;73.32
39949;BME280;29070;48.102;-1.652;2023-05-02T07:05:08;102168.00;;;13.23;73.82
39949;BME280;29070;48.102;-1.652;2023-05-02T07:10:09;102166.31;;;13.30;73.85
39949;BME280;29070;48.102;-1.652;2023-05-02T07:15:11;102161.19;;;13.52;73.73
39949;BME280;29070;48.102;-1.652;2023-05-02T07:20:12;102162.81;;;13.76;73.52
39949;BME280;29070;48.102;-1.652;2023-05-02T07:25:13;102160.16;;;13.91;72.99
39949;BME280;29070;48.102;-1.652;2023-05-02T07:30:14;102164.44;;;14.07;72.65
39949;BME280;29070;48.102;-1.652;2023-05-02T07:35:14;102158.91;;;14.17;72.10
39949;BME280;29070;48.102;-1.652;2023-05-02T07:40:14;102157.91;;;14.33;72.07
39949;BME280;29070;48.102;-1.652;2023-05-02T07:45:16;102154.31;;;14.40;71.86
39949;BME280;29070;48.102;-1.652;2023-05-02T07:50:17;102150.00;;;14.54;71.26
39949;BME280;29070;48.102;-1.652;2023-05-02T07:55:17;102148.97;;;14.70;71.07
39949;BME280;29070;48.102;-1.652;2023-05-02T08:00:18;102158.94;;;14.90;71.16
39949;BME280;29070;48.102;-1.652;2023-05-02T08:05:18;102169.41;;;15.19;70.96
39949;BME280;29070;48.102;-1.652;2023-05-02T08:10:18;102172.66;;;15.21;70.50
39949;BME280;29070;48.102;-1.652;2023-05-02T08:15:19;102161.69;;;15.46;70.18
39949;BME280;29070;48.102;-1.652;2023-05-02T08:20:19;102161.41;;;15.62;70.21
39949;BME280;29070;48.102;-1.652;2023-05-02T08:25:21;102168.50;;;15.84;69.96
39949;BME280;29070;48.102;-1.652;2023-05-02T08:30:21;102163.59;;;16.22;69.63
39949;BME280;29070;48.102;-1.652;2023-05-02T08:35:22;102163.66;;;16.35;68.27
39949;BME280;29070;48.102;-1.652;2023-05-02T08:40:22;102153.75;;;16.57;67.86
39949;BME280;29070;48.102;-1.652;2023-05-02T08:45:23;102158.09;;;16.78;67.71
39949;BME280;29070;48.102;-1.652;2023-05-02T08:50:24;102156.34;;;17.12;67.47
39949;BME280;29070;48.102;-1.652;2023-05-02T08:55:24;102158.19;;;17.39;66.57
39949;BME280;29070;48.102;-1.652;2023-05-02T09:00:27;102139.56;;;17.59;65.71
39949;BME280;29070;48.102;-1.652;2023-05-02T09:05:37;102134.81;;;17.74;65.09
39949;BME280;29070;48.102;-1.652;2023-05-02T09:10:40;102134.00;;;17.94;64.96
39949;BME280;29070;48.102;-1.652;2023-05-02T09:15:41;102126.13;;;18.19;64.53
39949;BME280;29070;48.102;-1.652;2023-05-02T09:20:41;102126.91;;;18.33;63.78
39949;BME280;29070;48.102;-1.652;2023-05-02T09:25:43;102128.13;;;18.68;63.81
39949;BME280;29070;48.102;-1.652;2023-05-02T09:30:43;102131.56;;;19.08;63.00
39949;BME280;29070;48.102;-1.652;2023-05-02T09:35:53;102133.25;;;19.27;62.10
39949;BME280;29070;48.102;-1.652;2023-05-02T09:40:54;102148.34;;;19.33;61.81
39949;BME280;29070;48.102;-1.652;2023-05-02T09:46:00;102137.22;;;19.61;61.14
39949;BME280;29070;48.102;-1.652;2023-05-02T09:51:02;102138.75;;;19.76;60.47
39949;BME280;29070;48.102;-1.652;2023-05-02T09:56:04;102138.81;;;19.88;59.94
39949;BME280;29070;48.102;-1.652;2023-05-02T10:01:04;102151.69;;;20.09;59.33
39949;BME280;29070;48.102;-1.652;2023-05-02T10:06:07;102146.91;;;20.30;59.07
39949;BME280;29070;48.102;-1.652;2023-05-02T10:11:08;102152.38;;;20.35;58.13
39949;BME280;29070;48.102;-1.652;2023-05-02T10:16:11;102156.97;;;20.46;57.45
39949;BME280;29070;48.102;-1.652;2023-05-02T10:21:17;102153.63;;;20.81;56.54
39949;BME280;29070;48.102;-1.652;2023-05-02T10:26:19;102164.03;;;21.13;56.14
39949;BME280;29070;48.102;-1.652;2023-05-02T10:31:23;102161.41;;;21.48;55.94
39949;BME280;29070;48.102;-1.652;2023-05-02T10:36:24;102163.94;;;21.67;54.96
39949;BME280;29070;48.102;-1.652;2023-05-02T10:41:26;102162.44;;;21.59;54.58
39949;BME280;29070;48.102;-1.652;2023-05-02T10:46:32;102151.50;;;21.84;53.72
39949;BME280;29070;48.102;-1.652;2023-05-02T10:51:35;102152.97;;;22.04;53.05
39949;BME280;29070;48.102;-1.652;2023-05-02T11:02:01;102143.03;;;22.16;51.87
39949;BME280;29070;48.102;-1.652;2023-05-02T11:12:05;102143.69;;;22.35;50.52
39949;BME280;29070;48.102;-1.652;2023-05-02T11:17:07;102130.31;;;22.35;50.68
39949;BME280;29070;48.102;-1.652;2023-05-02T11:38:00;102121.16;;;23.11;47.42
39949;BME280;29070;48.102;-1.652;2023-05-02T11:43:15;102115.31;;;23.14;46.76
39949;BME280;29070;48.102;-1.652;2023-05-02T11:48:20;102120.28;;;23.44;46.81
39949;BME280;29070;48.102;-1.652;2023-05-02T11:53:23;102112.94;;;23.95;47.12
39949;BME280;29070;48.102;-1.652;2023-05-02T11:58:26;102113.69;;;24.18;46.06
39949;BME280;29070;48.102;-1.652;2023-05-02T12:03:32;102119.72;;;23.81;44.92
39949;BME280;29070;48.102;-1.652;2023-05-02T12:08:32;102124.72;;;23.55;44.88
39949;BME280;29070;48.102;-1.652;2023-05-02T12:13:33;102118.16;;;23.24;44.39
39949;BME280;29070;48.102;-1.652;2023-05-02T12:18:33;102114.31;;;23.37;45.03
39949;BME280;29070;48.102;-1.652;2023-05-02T12:23:34;102117.69;;;23.49;45.00
39949;BME280;29070;48.102;-1.652;2023-05-02T12:28:47;102121.00;;;23.56;43.96
39949;BME280;29070;48.102;-1.652;2023-05-02T12:33:49;102119.25;;;23.67;45.07
39949;BME280;29070;48.102;-1.652;2023-05-02T12:38:55;102107.28;;;23.75;44.84
39949;BME280;29070;48.102;-1.652;2023-05-02T12:43:58;102105.00;;;24.06;43.96
39949;BME280;29070;48.102;-1.652;2023-05-02T12:49:06;102096.44;;;24.36;43.55
39949;BME280;29070;48.102;-1.652;2023-05-02T12:54:19;102089.03;;;24.48;42.88
39949;BME280;29070;48.102;-1.652;2023-05-02T12:59:30;102089.31;;;24.47;41.86
39949;BME280;29070;48.102;-1.652;2023-05-02T13:09:35;102094.91;;;24.72;43.10
39949;BME280;29070;48.102;-1.652;2023-05-02T13:14:36;102102.22;;;24.82;41.96
39949;BME280;29070;48.102;-1.652;2023-05-02T13:19:36;102101.56;;;25.02;41.62
39949;BME280;29070;48.102;-1.652;2023-05-02T13:24:36;102095.16;;;25.08;41.21
39949;BME280;29070;48.102;-1.652;2023-05-02T13:29:37;102091.53;;;24.92;40.92
39949;BME280;29070;48.102;-1.652;2023-05-02T13:34:37;102089.63;;;24.83;40.83
39949;BME280;29070;48.102;-1.652;2023-05-02T13:39:39;102074.28;;;24.51;40.68
39949;BME280;29070;48.102;-1.652;2023-05-02T13:44:39;102073.66;;;24.71;41.43
39949;BME280;29070;48.102;-1.652;2023-05-02T13:49:39;102066.16;;;24.73;40.74
39949;BME280;29070;48.102;-1.652;2023-05-02T13:54:40;102062.88;;;25.03;40.87
39949;BME280;29070;48.102;-1.652;2023-05-02T13:59:41;102066.28;;;25.31;39.96
39949;BME280;29070;48.102;-1.652;2023-05-02T14:04:41;102067.72;;;25.49;39.60
39949;BME280;29070;48.102;-1.652;2023-05-02T14:09:41;102056.13;;;25.48;39.77
39949;BME280;29070;48.102;-1.652;2023-05-02T14:14:42;102057.81;;;25.70;39.52
39949;BME280;29070;48.102;-1.652;2023-05-02T14:19:42;102050.59;;;25.76;39.07
39949;BME280;29070;48.102;-1.652;2023-05-02T14:24:42;102045.78;;;25.83;38.59
39949;BME280;29070;48.102;-1.652;2023-05-02T14:29:46;102033.72;;;25.96;37.96
39949;BME280;29070;48.102;-1.652;2023-05-02T14:34:47;102033.13;;;25.88;37.56
39949;BME280;29070;48.102;-1.652;2023-05-02T14:39:47;102010.84;;;26.03;37.21
39949;BME280;29070;48.102;-1.652;2023-05-02T14:44:51;102010.06;;;26.08;36.75
39949;BME280;29070;48.102;-1.652;2023-05-02T14:49:52;102004.00;;;25.49;36.49
39949;BME280;29070;48.102;-1.652;2023-05-02T14:54:52;102001.03;;;25.51;36.93
39949;BME280;29070;48.102;-1.652;2023-05-02T14:59:53;101993.81;;;25.62;37.29
39949;BME280;29070;48.102;-1.652;2023-05-02T15:04:53;101995.44;;;25.58;37.00
39949;BME280;29070;48.102;-1.652;2023-05-02T15:09:53;101993.81;;;25.62;36.32
39949;BME280;29070;48.102;-1.652;2023-05-02T15:14:54;101978.50;;;25.67;36.58
39949;BME280;29070;48.102;-1.652;2023-05-02T15:19:54;101984.41;;;25.75;36.50
39949;BME280;29070;48.102;-1.652;2023-05-02T15:24:55;101983.66;;;25.84;36.20
39949;BME280;29070;48.102;-1.652;2023-05-02T15:29:55;101970.16;;;25.90;36.73
39949;BME280;29070;48.102;-1.652;2023-05-02T15:34:56;101968.84;;;25.92;36.43
39949;BME280;29070;48.102;-1.652;2023-05-02T15:39:56;101972.31;;;25.72;36.79
39949;BME280;29070;48.102;-1.652;2023-05-02T15:44:56;101967.47;;;25.74;36.42
39949;BME280;29070;48.102;-1.652;2023-05-02T15:49:57;101968.81;;;25.61;36.71
39949;BME280;29070;48.102;-1.652;2023-05-02T15:54:57;101963.63;;;25.34;36.36
39949;BME280;29070;48.102;-1.652;2023-05-02T15:59:58;101964.00;;;25.00;36.34
39949;BME280;29070;48.102;-1.652;2023-05-02T16:04:58;101965.56;;;24.91;36.44
39949;BME280;29070;48.102;-1.652;2023-05-02T16:09:58;101948.16;;;25.04;36.98
39949;BME280;29070;48.102;-1.652;2023-05-02T16:14:59;101953.84;;;25.18;36.70
39949;BME280;29070;48.102;-1.652;2023-05-02T16:19:59;101950.13;;;25.19;36.44
39949;BME280;29070;48.102;-1.652;2023-05-02T16:25:00;101951.69;;;25.09;36.27
39949;BME280;29070;48.102;-1.652;2023-05-02T16:30:00;101956.91;;;24.73;36.20
39949;BME280;29070;48.102;-1.652;2023-05-02T16:35:00;101962.28;;;24.41;36.32
39949;BME280;29070;48.102;-1.652;2023-05-02T16:40:01;101948.09;;;24.46;36.41
39949;BME280;29070;48.102;-1.652;2023-05-02T16:45:05;101951.88;;;24.50;36.53
39949;BME280;29070;48.102;-1.652;2023-05-02T16:50:06;101946.88;;;24.26;36.47
39949;BME280;29070;48.102;-1.652;2023-05-02T16:55:07;101951.75;;;23.97;36.49
39949;BME280;29070;48.102;-1.652;2023-05-02T17:00:08;101943.31;;;23.83;36.59
39949;BME280;29070;48.102;-1.652;2023-05-02T17:05:10;101944.22;;;23.67;36.34
39949;BME280;29070;48.102;-1.652;2023-05-02T17:10:11;101937.69;;;23.57;36.54
39949;BME280;29070;48.102;-1.652;2023-05-02T17:15:12;101933.63;;;23.55;36.75
39949;BME280;29070;48.102;-1.652;2023-05-02T17:20:13;101923.00;;;23.38;37.10
39949;BME280;29070;48.102;-1.652;2023-05-02T17:25:13;101926.31;;;23.23;37.41
39949;BME280;29070;48.102;-1.652;2023-05-02T17:30:14;101926.84;;;23.03;37.39
39949;BME280;29070;48.102;-1.652;2023-05-02T17:35:14;101913.00;;;22.89;37.78
39949;BME280;29070;48.102;-1.652;2023-05-02T17:40:15;101915.34;;;22.80;38.04
39949;BME280;29070;48.102;-1.652;2023-05-02T17:45:16;101905.06;;;22.72;38.37
39949;BME280;29070;48.102;-1.652;2023-05-02T17:50:17;101904.41;;;22.65;38.79
39949;BME280;29070;48.102;-1.652;2023-05-02T17:55:17;101909.88;;;22.53;38.88
39949;BME280;29070;48.102;-1.652;2023-05-02T18:00:18;101920.69;;;22.41;39.35
39949;BME280;29070;48.102;-1.652;2023-05-02T18:05:18;101915.31;;;22.24;39.24
39949;BME280;29070;48.102;-1.652;2023-05-02T18:10:19;101918.56;;;22.09;39.67
39949;BME280;29070;48.102;-1.652;2023-05-02T18:15:19;101918.94;;;22.01;40.03
39949;BME280;29070;48.102;-1.652;2023-05-02T18:20:20;101921.19;;;21.93;40.05
39949;BME280;29070;48.102;-1.652;2023-05-02T18:25:21;101912.47;;;21.80;39.99
39949;BME280;29070;48.102;-1.652;2023-05-02T18:30:21;101906.84;;;21.65;40.41
39949;BME280;29070;48.102;-1.652;2023-05-02T18:35:22;101903.06;;;21.49;40.98
39949;BME280;29070;48.102;-1.652;2023-05-02T18:40:22;101913.94;;;21.30;41.10
39949;BME280;29070;48.102;-1.652;2023-05-02T18:45:23;101916.84;;;21.17;41.41
39949;BME280;29070;48.102;-1.652;2023-05-02T18:50:23;101922.25;;;21.05;41.76
39949;BME280;29070;48.102;-1.652;2023-05-02T18:55:25;101923.22;;;20.87;41.91
39949;BME280;29070;48.102;-1.652;2023-05-02T19:00:27;101912.75;;;20.74;42.28
39949;BME280;29070;48.102;-1.652;2023-05-02T19:05:29;101921.22;;;20.59;42.49
39949;BME280;29070;48.102;-1.652;2023-05-02T19:10:29;101921.66;;;20.44;43.10
39949;BME280;29070;48.102;-1.652;2023-05-02T19:15:32;101925.59;;;20.30;43.39
39949;BME280;29070;48.102;-1.652;2023-05-02T19:20:32;101935.69;;;20.16;43.58
39949;BME280;29070;48.102;-1.652;2023-05-02T19:25:37;101925.09;;;19.97;44.48
39949;BME280;29070;48.102;-1.652;2023-05-02T19:30:41;101923.88;;;19.81;44.77
39949;BME280;29070;48.102;-1.652;2023-05-02T19:35:42;101927.16;;;19.65;44.97
39949;BME280;29070;48.102;-1.652;2023-05-02T19:40:42;101934.16;;;19.48;45.07
39949;BME280;29070;48.102;-1.652;2023-05-02T19:45:42;101923.09;;;19.32;45.78
39949;BME280;29070;48.102;-1.652;2023-05-02T19:50:43;101925.31;;;19.17;46.05
39949;BME280;29070;48.102;-1.652;2023-05-02T19:55:43;101929.16;;;19.02;46.42
39949;BME280;29070;48.102;-1.652;2023-05-02T20:00:43;101932.41;;;18.86;46.73
39949;BME280;29070;48.102;-1.652;2023-05-02T20:05:45;101920.47;;;18.70;46.93
39949;BME280;29070;48.102;-1.652;2023-05-02T20:10:45;101929.38;;;18.57;47.04
39949;BME280;29070;48.102;-1.652;2023-05-02T20:15:48;101931.53;;;18.42;47.50
39949;BME280;29070;48.102;-1.652;2023-05-02T20:20:49;101932.84;;;18.33;47.55
39949;BME280;29070;48.102;-1.652;2023-05-02T20:25:49;101918.03;;;18.18;48.02
39949;BME280;29070;48.102;-1.652;2023-05-02T20:30:50;101929.38;;;18.07;48.21
39949;BME280;29070;48.102;-1.652;2023-05-02T20:35:54;101926.56;;;17.95;48.46
39949;BME280;29070;48.102;-1.652;2023-05-02T20:40:54;101935.41;;;17.82;48.67
39949;BME280;29070;48.102;-1.652;2023-05-02T20:45:56;101940.38;;;17.72;49.06
39949;BME280;29070;48.102;-1.652;2023-05-02T20:50:56;101945.75;;;17.59;49.26
39949;BME280;29070;48.102;-1.652;2023-05-02T20:55:57;101948.03;;;17.48;49.62
39949;BME280;29070;48.102;-1.652;2023-05-02T21:00:57;101952.16;;;17.38;50.00
39949;BME280;29070;48.102;-1.652;2023-05-02T21:05:58;101955.69;;;17.25;50.09
39949;BME280;29070;48.102;-1.652;2023-05-02T21:10:58;101970.63;;;17.12;50.48
39949;BME280;29070;48.102;-1.652;2023-05-02T21:15:59;101974.72;;;16.95;50.79
39949;BME280;29070;48.102;-1.652;2023-05-02T21:20:59;101978.19;;;16.75;51.04
39949;BME280;29070;48.102;-1.652;2023-05-02T21:26:00;101994.09;;;16.55;51.19
39949;BME280;29070;48.102;-1.652;2023-05-02T21:31:00;101991.44;;;16.35;51.60
39949;BME280;29070;48.102;-1.652;2023-05-02T21:36:01;101987.91;;;16.15;51.92
39949;BME280;29070;48.102;-1.652;2023-05-02T21:41:03;101981.78;;;16.01;52.38
39949;BME280;29070;48.102;-1.652;2023-05-02T21:46:04;101987.88;;;15.88;52.71
39949;BME280;29070;48.102;-1.652;2023-05-02T21:51:08;101991.44;;;15.67;53.55
39949;BME280;29070;48.102;-1.652;2023-05-02T21:56:09;101997.06;;;15.51;53.12
39949;BME280;29070;48.102;-1.652;2023-05-02T22:01:09;101990.50;;;15.40;53.92
39949;BME280;29070;48.102;-1.652;2023-05-02T22:06:10;101986.34;;;15.31;54.17
39949;BME280;29070;48.102;-1.652;2023-05-02T22:11:10;101984.25;;;15.19;54.46
39949;BME280;29070;48.102;-1.652;2023-05-02T22:16:11;101996.00;;;15.10;54.90
39949;BME280;29070;48.102;-1.652;2023-05-02T22:21:11;101984.56;;;15.03;55.39
39949;BME280;29070;48.102;-1.652;2023-05-02T22:26:12;101991.88;;;15.01;55.57
39949;BME280;29070;48.102;-1.652;2023-05-02T22:31:12;102001.59;;;14.94;55.98
39949;BME280;29070;48.102;-1.652;2023-05-02T22:36:16;101999.06;;;14.85;56.29
39949;BME280;29070;48.102;-1.652;2023-05-02T22:41:16;102001.66;;;14.79;56.65
39949;BME280;29070;48.102;-1.652;2023-05-02T22:46:16;102002.00;;;14.69;56.57
39949;BME280;29070;48.102;-1.652;2023-05-02T22:51:17;102005.81;;;14.66;56.82
39949;BME280;29070;48.102;-1.652;2023-05-02T22:56:18;102005.59;;;14.61;56.82
39949;BME280;29070;48.102;-1.652;2023-05-02T23:01:18;102004.94;;;14.59;57.01
39949;BME280;29070;48.102;-1.652;2023-05-02T23:06:18;102011.06;;;14.60;56.97
39949;BME280;29070;48.102;-1.652;2023-05-02T23:11:19;102007.97;;;14.56;57.06
39949;BME280;29070;48.102;-1.652;2023-05-02T23:16:20;101996.78;;;14.54;57.21
39949;BME280;29070;48.102;-1.652;2023-05-02T23:21:20;102005.25;;;14.49;57.60
39949;BME280;29070;48.102;-1.652;2023-05-02T23:26:20;102000.34;;;14.46;57.55
39949;BME280;29070;48.102;-1.652;2023-05-02T23:31:21;102019.84;;;14.45;57.57
39949;BME280;29070;48.102;-1.652;2023-05-02T23:36:21;102013.28;;;14.41;57.71
39949;BME280;29070;48.102;-1.652;2023-05-02T23:41:21;102017.50;;;14.36;57.91
39949;BME280;29070;48.102;-1.652;2023-05-02T23:46:23;102009.97;;;14.33;58.25
39949;BME280;29070;48.102;-1.652;2023-05-02T23:51:23;102008.50;;;14.30;58.54
39949;BME280;29070;48.102;-1.652;2023-05-02T23:56:24;102002.97;;;14.25;58.56
